Time;durP1;ratioP1;P1;durP2;ratioP2;P2;SDS_P1;SDS_P2;PMS_P1;PMS_P2;Temp;Humidity;BMP_temperature;BMP_pressure;BME280_temperature;BME280_humidity;BME280_pressure;Samples;Min_cycle;Max_cycle;Signal;HPM_P1;HPM_P2
2023/05/24 00:04:28;;;;;;;19.60;14.20;;;;;;;16.11;68.20;98252.65;436202;1247;99346;-42
2023/05/24 00:14:33;;;;;;;25.10;14.20;;;;;;;15.89;68.52;98264.21;435931;1261;107074;-42
2023/05/24 00:24:37;;;;;;;18.60;14.20;;;;;;;15.74;68.68;98267.68;436110;1264;99248;-42
2023/05/24 00:34:45;;;;;;;24.50;16.80;;;;;;;15.58;68.98;98270.11;435907;1253;112720;-44
2023/05/24 00:44:49;;;;;;;27.20;19.00;;;;;;;15.41;69.84;98265.29;435605;1253;108272;-42
2023/05/24 00:54:52;;;;;;;24.00;19.30;;;;;;;15.24;70.69;98269.73;436074;1253;99212;-42
2023/05/24 01:04:56;;;;;;;30.40;22.90;;;;;;;15.10;71.67;98274.80;436114;1254;107137;-42
2023/05/24 01:15:00;;;;;;;28.10;22.80;;;;;;;14.99;72.32;98277.69;436079;1254;101378;-41
2023/05/24 01:35:15;;;;;;;33.60;23.90;;;;;;;14.79;73.54;98290.88;435890;1253;107719;-41
2023/05/24 01:45:28;;;;;;;30.30;23.30;;;;;;;14.76;73.63;98294.97;436107;1253;99375;-44
2023/05/24 01:55:33;;;;;;;31.10;22.60;;;;;;;14.68;73.92;98293.75;436162;1250;107662;-43
2023/05/24 02:05:38;;;;;;;32.50;23.70;;;;;;;14.68;74.65;98302.85;436061;1261;99243;-43
2023/05/24 02:15:43;;;;;;;34.00;26.70;;;;;;;14.70;75.66;98308.17;436247;1253;111436;-43
2023/05/24 02:25:47;;;;;;;30.60;25.50;;;;;;;14.76;75.93;98310.36;435638;1251;107698;-42
2023/05/24 02:35:51;;;;;;;31.10;22.70;;;;;;;14.84;76.59;98313.60;435718;1254;99236;-45
2023/05/24 02:45:55;;;;;;;32.30;23.70;;;;;;;14.80;77.40;98314.03;435964;1254;108850;-42
2023/05/24 02:55:59;;;;;;;29.80;23.00;;;;;;;14.82;78.23;98325.95;435832;1262;99325;-42
2023/05/24 03:06:02;;;;;;;33.30;24.90;;;;;;;14.87;78.84;98324.46;436030;1248;111300;-43
2023/05/24 03:16:07;;;;;;;28.20;23.30;;;;;;;14.95;79.06;98326.40;435723;1263;106858;-43
2023/05/24 03:36:15;;;;;;;25.70;21.00;;;;;;;15.13;79.36;98335.84;435876;1253;108405;-42
2023/05/24 03:46:19;;;;;;;24.30;20.40;;;;;;;15.17;79.22;98354.23;435624;1254;436073;-41
2023/05/24 03:56:22;;;;;;;22.10;19.20;;;;;;;15.24;79.28;98357.31;435851;1263;112131;-43
2023/05/24 04:26:36;;;;;;;22.80;18.40;;;;;;;15.31;80.55;98360.06;435904;1253;108456;-43
2023/05/24 04:46:44;;;;;;;22.70;19.90;;;;;;;15.39;81.79;98387.84;436104;1251;111663;-43
2023/05/24 04:56:48;;;;;;;24.20;19.00;;;;;;;15.47;81.68;98396.90;436056;1254;106755;-42
2023/05/24 05:06:52;;;;;;;27.70;19.50;;;;;;;15.56;81.31;98402.12;436128;1253;99390;-43
2023/05/24 05:16:55;;;;;;;25.40;19.10;;;;;;;15.51;81.04;98428.29;436023;1247;107884;-42
2023/05/24 05:26:59;;;;;;;26.90;19.20;;;;;;;15.18;80.75;98450.46;436308;1253;97995;-43
2023/05/24 05:37:04;;;;;;;26.90;17.30;;;;;;;14.86;81.18;98459.01;435950;1253;111456;-43
2023/05/24 05:57:11;;;;;;;24.40;15.20;;;;;;;14.38;82.22;98484.58;436218;1251;98489;-42
2023/05/24 06:07:16;;;;;;;21.00;13.00;;;;;;;14.13;82.57;98500.58;435940;1253;108654;-41
2023/05/24 06:17:22;;;;;;;30.20;12.80;;;;;;;13.84;83.27;98518.06;436089;1253;99861;-42
2023/05/24 06:37:30;;;;;;;10.00;7.10;;;;;;;13.42;84.70;98551.67;436097;1253;108524;-42
2023/05/24 07:17:42;;;;;;;9.20;6.00;;;;;;;13.33;84.93;98600.19;435814;1253;111666;-41
2023/05/24 07:27:47;;;;;;;10.30;5.90;;;;;;;13.36;84.62;98618.27;435983;1253;109290;-43
2023/05/24 07:37:50;;;;;;;7.80;5.20;;;;;;;13.38;84.32;98623.77;435988;1253;99241;-42
2023/05/24 07:47:54;;;;;;;11.00;6.20;;;;;;;13.34;83.98;98644.16;435914;1253;108432;-44
2023/05/24 07:58:00;;;;;;;14.60;5.70;;;;;;;13.22;83.40;98657.71;435883;1252;99851;-41
2023/05/24 08:08:03;;;;;;;9.60;5.70;;;;;;;13.16;82.91;98671.36;436033;1250;112047;-43
2023/05/24 08:18:08;;;;;;;15.60;5.70;;;;;;;13.24;82.56;98675.69;435872;1251;108811;-42
2023/05/24 08:28:12;;;;;;;18.00;6.70;;;;;;;13.29;82.11;98687.82;435874;1249;97992;-42
2023/05/24 08:38:16;;;;;;;11.00;5.90;;;;;;;13.20;81.87;98696.49;435982;1253;109267;-42
2023/05/24 08:48:21;;;;;;;12.80;6.50;;;;;;;13.16;81.63;98712.89;436018;1253;98008;-42
2023/05/24 08:58:25;;;;;;;22.40;6.80;;;;;;;13.32;81.54;98726.58;435884;1250;112439;-42
2023/05/24 09:08:32;;;;;;;11.60;6.40;;;;;;;13.49;81.26;98725.15;435906;1253;107408;-44
2023/05/24 09:18:36;;;;;;;12.40;6.60;;;;;;;13.49;80.85;98740.02;435830;1253;97954;-43
2023/05/24 09:38:44;;;;;;;10.30;5.80;;;;;;;13.49;80.40;98753.48;435934;1251;99248;-44
2023/05/24 09:48:58;;;;;;;11.50;5.00;;;;;;;13.56;80.40;98757.82;436055;1250;112445;-43
2023/05/24 09:59:05;;;;;;;7.90;5.00;;;;;;;13.60;80.04;98771.27;435915;1253;109069;-42
2023/05/24 10:09:10;;;;;;;24.50;6.60;;;;;;;13.46;79.91;98772.08;435838;1251;99223;-42
2023/05/24 10:19:15;;;;;;;9.80;5.80;;;;;;;13.49;79.78;98781.38;435677;1253;108349;-41
2023/05/24 10:29:19;;;;;;;7.60;5.00;;;;;;;13.52;79.60;98788.59;435800;1250;99237;-43
2023/05/24 10:39:26;;;;;;;8.40;5.00;;;;;;;13.61;79.61;98789.45;435883;1253;110400;-43
2023/05/24 10:49:30;;;;;;;8.80;5.70;;;;;;;13.86;79.54;98800.94;435885;1252;108026;-42
2023/05/24 10:59:38;;;;;;;11.10;5.50;;;;;;;14.11;79.38;98799.02;435790;1253;99252;-42
2023/05/24 11:19:51;;;;;;;6.70;5.10;;;;;;;14.26;78.12;98813.61;435681;1253;99216;-42
2023/05/24 11:29:58;;;;;;;24.90;6.20;;;;;;;14.18;77.88;98825.41;436016;1253;110446;-44
2023/05/24 11:50:07;;;;;;;9.40;5.60;;;;;;;14.03;77.95;98826.61;435845;1253;99230;-43
2023/05/24 12:00:15;;;;;;;7.40;5.90;;;;;;;14.81;77.69;98814.45;435725;1253;107644;-42
2023/05/24 12:10:20;;;;;;;8.40;6.50;;;;;;;15.16;76.71;98820.05;435832;1251;98008;-42
2023/05/24 12:20:27;;;;;;;10.70;8.10;;;;;;;15.15;76.04;98831.21;435674;1250;112440;-42
2023/05/24 12:30:31;;;;;;;8.60;6.70;;;;;;;14.84;75.76;98821.56;435572;1253;107652;-43
2023/05/24 12:40:36;;;;;;;10.90;6.60;;;;;;;14.78;75.58;98822.52;435760;1253;99326;-42
2023/05/24 12:50:39;;;;;;;10.10;7.50;;;;;;;15.06;75.75;98824.10;435653;1253;107656;-42
2023/05/24 13:20:52;;;;;;;13.50;8.60;;;;;;;14.89;74.67;98826.23;435715;1253;107926;-42
2023/05/24 13:30:56;;;;;;;16.30;8.00;;;;;;;14.92;74.85;98824.20;436025;1251;99240;-42
2023/05/24 13:41:00;;;;;;;13.00;8.30;;;;;;;15.11;74.45;98827.23;435872;1253;108742;-42
2023/05/24 13:51:04;;;;;;;10.70;7.40;;;;;;;15.17;73.88;98834.42;435609;1253;99063;-43
2023/05/24 14:01:09;;;;;;;8.90;7.40;;;;;;;15.11;74.11;98841.83;435849;1250;113071;-44
2023/05/24 14:11:14;;;;;;;17.00;8.30;;;;;;;14.95;74.03;98841.27;435653;1253;107746;-42
2023/05/24 14:21:20;;;;;;;16.60;8.70;;;;;;;14.79;74.17;98842.98;435889;1253;97991;-42
2023/05/24 14:31:24;;;;;;;21.90;9.10;;;;;;;14.74;74.10;98847.73;435469;1250;109626;-44
2023/05/24 14:41:28;;;;;;;16.50;8.10;;;;;;;14.69;74.23;98849.17;435593;1253;98830;-42
2023/05/24 14:51:32;;;;;;;52.20;9.90;;;;;;;14.76;74.21;98841.63;435663;1250;111913;-43
2023/05/24 15:01:36;;;;;;;15.30;9.30;;;;;;;14.58;74.09;98839.36;435618;1250;108332;-42
2023/05/24 15:11:40;;;;;;;18.00;9.00;;;;;;;14.51;74.11;98839.55;435560;1253;99208;-43
2023/05/24 15:21:44;;;;;;;13.00;8.40;;;;;;;14.51;74.29;98848.08;435563;1253;109522;-43
2023/05/24 15:31:48;;;;;;;13.40;8.60;;;;;;;14.49;74.36;98851.73;435640;1251;99336;-43
2023/05/24 15:41:52;;;;;;;13.00;8.70;;;;;;;14.42;74.40;98846.41;435378;1249;425083;-42
2023/05/24 15:51:56;;;;;;;13.50;8.40;;;;;;;14.29;74.45;98852.00;435556;1251;107499;-42
2023/05/24 16:02:02;;;;;;;16.60;8.60;;;;;;;14.19;74.73;98855.38;435684;1252;98686;-43
2023/05/24 16:12:07;;;;;;;14.20;7.80;;;;;;;14.15;74.82;98863.10;435358;1253;108681;-42
2023/05/24 16:22:11;;;;;;;14.90;10.00;;;;;;;13.95;74.94;98869.48;435644;1250;98582;-42
2023/05/24 16:32:15;;;;;;;14.70;8.60;;;;;;;13.79;74.92;98873.26;435505;1262;112064;-42
2023/05/24 16:42:19;;;;;;;14.90;9.20;;;;;;;13.79;75.14;98877.73;435588;1251;107226;-42
2023/05/24 16:52:23;;;;;;;24.70;9.90;;;;;;;13.76;75.23;98888.31;435614;1253;99855;-42
2023/05/24 17:02:27;;;;;;;14.30;9.60;;;;;;;13.70;75.58;98905.80;435617;1253;108464;-42
2023/05/24 17:12:31;;;;;;;16.80;9.70;;;;;;;13.65;75.64;98910.02;435913;1253;99234;-42
2023/05/24 17:22:35;;;;;;;20.00;9.70;;;;;;;13.59;75.70;98912.90;435747;1253;110966;-43
2023/05/24 17:32:40;;;;;;;19.10;10.30;;;;;;;13.64;75.80;98928.39;435728;1253;108596;-41
2023/05/24 17:42:44;;;;;;;30.90;12.10;;;;;;;13.53;75.89;98941.10;435950;1253;99202;-42
2023/05/24 17:52:48;;;;;;;21.30;10.90;;;;;;;13.36;76.39;98943.72;435689;1253;109007;-43
2023/05/24 18:02:51;;;;;;;22.50;12.40;;;;;;;13.16;76.61;98947.16;435618;1253;99247;-43
2023/05/24 18:12:56;;;;;;;19.40;12.60;;;;;;;13.15;76.69;98961.17;435776;1253;112001;-42
2023/05/24 18:22:59;;;;;;;27.30;13.30;;;;;;;13.08;76.89;98964.72;435610;1253;107044;-42
2023/05/24 18:33:03;;;;;;;26.30;14.20;;;;;;;13.02;77.03;98978.93;435680;1251;99236;-43
2023/05/24 18:53:15;;;;;;;32.10;18.60;;;;;;;12.85;77.25;99011.46;435660;1253;99331;-42
2023/05/24 19:03:18;;;;;;;33.80;15.70;;;;;;;12.76;77.50;99021.55;436127;1261;112006;-43
2023/05/24 19:23:28;;;;;;;25.20;15.70;;;;;;;12.77;77.63;99029.90;435734;1253;99854;-42
2023/05/24 19:33:32;;;;;;;22.80;13.90;;;;;;;12.78;77.76;99033.81;435875;1251;108654;-43
2023/05/24 19:43:36;;;;;;;26.50;16.20;;;;;;;12.75;77.91;99034.27;435760;1253;99320;-42
2023/05/24 19:53:40;;;;;;;25.20;16.00;;;;;;;12.66;77.97;99031.38;436005;1258;110800;-42
2023/05/24 20:13:48;;;;;;;25.50;14.80;;;;;;;12.49;78.12;99025.70;435785;1253;99215;-41
2023/05/24 20:23:54;;;;;;;31.40;19.20;;;;;;;12.50;78.38;99022.66;435985;1250;107904;-42
2023/05/24 20:34:01;;;;;;;21.80;13.70;;;;;;;12.49;78.41;99021.48;435666;1261;98314;-42
2023/05/24 20:44:05;;;;;;;23.60;15.10;;;;;;;12.51;78.46;99021.98;435743;1263;112040;-41
2023/05/24 20:54:10;;;;;;;26.90;16.10;;;;;;;12.42;78.64;99017.13;435744;1253;106732;-42
2023/05/24 21:04:14;;;;;;;28.50;18.10;;;;;;;12.33;78.79;99022.13;437557;1255;99231;-41
2023/05/24 21:14:18;;;;;;;29.60;17.50;;;;;;;12.32;78.74;99023.23;438143;1253;107364;-43
2023/05/24 21:24:22;;;;;;;22.60;15.70;;;;;;;12.32;78.75;99035.15;435999;1254;98824;-41
2023/05/24 21:34:26;;;;;;;23.20;15.70;;;;;;;12.28;78.91;99042.91;438092;1253;110882;-42
2023/05/24 21:44:29;;;;;;;31.10;17.90;;;;;;;12.23;79.05;99056.73;437198;1253;108771;-42
2023/05/24 21:54:33;;;;;;;30.00;15.70;;;;;;;12.22;79.21;99061.97;437233;1263;99333;-42
2023/05/24 22:04:37;;;;;;;21.30;16.90;;;;;;;12.15;79.37;99074.63;437406;1253;106702;-41
2023/05/24 22:24:47;;;;;;;28.70;17.50;;;;;;;11.99;79.39;99087.59;437518;1251;112816;-41
2023/05/24 22:34:50;;;;;;;25.60;15.10;;;;;;;12.02;79.66;99095.86;437309;1254;107860;-42
2023/05/24 22:44:54;;;;;;;22.80;16.00;;;;;;;12.04;79.70;99109.20;436679;1253;99344;-43
2023/05/24 22:54:58;;;;;;;25.20;15.80;;;;;;;12.06;79.66;99105.03;436673;1253;108462;-43
2023/05/24 23:15:07;;;;;;;25.30;18.10;;;;;;;11.96;79.81;99093.88;437036;1250;112371;-42
2023/05/24 23:25:11;;;;;;;24.70;17.00;;;;;;;11.80;80.05;99102.21;437735;1254;107889;-42
2023/05/24 23:35:16;;;;;;;24.90;16.80;;;;;;;11.77;80.36;99094.00;438335;1252;98299;-43
2023/05/24 23:45:19;;;;;;;20.80;16.10;;;;;;;11.83;80.41;99090.48;437961;1251;107393;-43
2023/05/24 23:55:23;;;;;;;28.40;16.40;;;;;;;11.86;80.44;99087.92;436708;1254;99368;-43
